Time;durP1;ratioP1;P1;durP2;ratioP2;P2;SDS_P1;SDS_P2;PMS_P1;PMS_P2;Temp;Humidity;BMP_temperature;BMP_pressure;BME280_temperature;BME280_humidity;BME280_pressure;Samples;Min_cycle;Max_cycle;Signal;HPM_P1;HPM_P2
2022/02/27 00:01:51;;;;;;;;;;;;;;;6.56;100.00;99750.72;5096701;28;20375;-74
2022/02/27 00:04:18;;;;;;;;;;;;;;;6.49;100.00;99752.63;5095262;28;19924;-75
2022/02/27 00:06:45;;;;;;;;;;;;;;;5.99;100.00;99742.09;5092885;28;20023;-75
2022/02/27 00:09:12;;;;;;;;;;;;;;;6.31;100.00;99743.31;5089709;28;19931;-75
2022/02/27 00:11:40;;;;;;;;;;;;;;;6.56;100.00;99747.16;5088737;28;19928;-75
2022/02/27 00:14:07;;;;;;;;;;;;;;;6.86;100.00;99742.31;5095224;28;19962;-75
2022/02/27 00:16:34;;;;;;;;;;;;;;;6.84;100.00;99739.13;5095429;28;19924;-75
2022/02/27 00:19:02;;;;;;;;;;;;;;;6.19;100.00;99746.34;5096151;28;19974;-75
2022/02/27 00:21:29;;;;;;;;;;;;;;;6.55;100.00;99748.34;5095092;28;19924;-75
2022/02/27 00:23:56;;;;;;;;;;;;;;;6.31;100.00;99759.97;5094891;28;19924;-75
2022/02/27 00:26:23;;;;;;;;;;;;;;;6.04;100.00;99755.66;5078383;28;19928;-75
2022/02/27 00:28:50;;;;;;;;;;;;;;;6.71;100.00;99752.47;5096333;28;19928;-75
2022/02/27 00:31:17;;;;;;;;;;;;;;;6.37;100.00;99764.81;5078255;28;19931;-75
2022/02/27 00:33:44;;;;;;;;;;;;;;;6.31;100.00;99748.84;5094925;28;19924;-75
2022/02/27 00:36:12;;;;;;;;;;;;;;;6.40;100.00;99757.69;5094904;28;19924;-75
2022/02/27 00:38:39;;;;;;;;;;;;;;;6.51;100.00;99747.50;5077831;28;19924;-75
2022/02/27 00:41:07;;;;;;;;;;;;;;;6.61;100.00;99753.19;5094652;28;19997;-75
2022/02/27 00:43:34;;;;;;;;;;;;;;;6.37;100.00;99753.69;5078027;28;20022;-75
2022/02/27 00:46:01;;;;;;;;;;;;;;;6.73;100.00;99749.31;5095986;28;19928;-75
2022/02/27 00:48:28;;;;;;;;;;;;;;;6.76;100.00;99743.81;5060990;28;20379;-75
2022/02/27 00:50:55;;;;;;;;;;;;;;;6.44;100.00;99750.19;5095769;28;19924;-75
2022/02/27 00:53:22;;;;;;;;;;;;;;;6.28;100.00;99749.63;5077704;28;19993;-75
2022/02/27 00:55:51;;;;;;;;;;;;;;;6.28;100.00;99755.16;5077594;28;19924;-75
2022/02/27 00:58:18;;;;;;;;;;;;;;;6.29;100.00;99754.78;5077610;28;19966;-75
2022/02/27 01:00:46;;;;;;;;;;;;;;;6.50;100.00;99757.00;5095759;28;19924;-75
2022/02/27 01:03:13;;;;;;;;;;;;;;;6.52;100.00;99761.00;5095467;28;20410;-75
2022/02/27 01:05:40;;;;;;;;;;;;;;;6.38;100.00;99754.47;5077435;28;19935;-75
2022/02/27 01:08:09;;;;;;;;;;;;;;;6.66;100.00;99763.13;5094271;28;19924;-75
2022/02/27 01:10:37;;;;;;;;;;;;;;;6.58;100.00;99758.69;5077321;28;19924;-75
2022/02/27 01:13:03;;;;;;;;;;;;;;;6.40;100.00;99764.03;5077338;28;20378;-75
2022/02/27 01:15:30;;;;;;;;;;;;;;;6.41;100.00;99770.38;5094485;28;19928;-75
2022/02/27 01:17:57;;;;;;;;;;;;;;;6.26;100.00;99763.88;5094176;28;19954;-75
2022/02/27 01:20:25;;;;;;;;;;;;;;;5.53;100.00;99769.97;5095157;28;19931;-75
2022/02/27 01:22:52;;;;;;;;;;;;;;;5.64;100.00;99772.91;5097228;28;19928;-75
2022/02/27 01:25:19;;;;;;;;;;;;;;;6.00;100.00;99761.16;5080705;28;19961;-75
2022/02/27 01:27:47;;;;;;;;;;;;;;;6.04;100.00;99777.84;5097397;28;19993;-75
2022/02/27 01:30:14;;;;;;;;;;;;;;;6.10;100.00;99777.16;5079982;28;20302;-75
2022/02/27 01:32:41;;;;;;;;;;;;;;;6.24;100.00;99776.53;5080366;28;20032;-75
2022/02/27 01:35:08;;;;;;;;;;;;;;;6.13;100.00;99775.59;5080283;28;19924;-75
2022/02/27 01:37:36;;;;;;;;;;;;;;;6.27;100.00;99786.88;5080319;28;20309;-75
2022/02/27 01:40:03;;;;;;;;;;;;;;;5.98;100.00;99782.13;5080281;28;20325;-75
2022/02/27 01:42:31;;;;;;;;;;;;;;;6.02;100.00;99785.75;5097227;28;19934;-75
2022/02/27 01:45:02;;;;;;;;;;;;;;;5.89;100.00;99787.16;5097209;28;19924;-75
2022/02/27 01:47:29;;;;;;;;;;;;;;;6.22;100.00;99779.69;5063207;28;20287;-75
2022/02/27 01:49:56;;;;;;;;;;;;;;;6.09;100.00;99775.53;5114144;28;19923;-75
2022/02/27 01:52:25;;;;;;;;;;;;;;;5.99;100.00;99780.94;5079845;28;19977;-75
2022/02/27 01:54:52;;;;;;;;;;;;;;;5.87;100.00;99775.63;5096793;28;19928;-74
2022/02/27 01:57:19;;;;;;;;;;;;;;;5.65;100.00;99777.25;5096765;28;19986;-75
2022/02/27 01:59:47;;;;;;;;;;;;;;;5.80;100.00;99772.75;5096550;28;19924;-75
2022/02/27 02:02:14;;;;;;;;;;;;;;;5.68;100.00;99764.63;5114681;28;20355;-75
2022/02/27 02:04:44;;;;;;;;;;;;;;;5.85;100.00;99767.69;5080230;28;19924;-75
2022/02/27 02:07:12;;;;;;;;;;;;;;;6.10;100.00;99759.69;5096793;28;19927;-75
2022/02/27 02:09:39;;;;;;;;;;;;;;;6.10;100.00;99765.25;5096411;28;19924;-75
2022/02/27 02:12:08;;;;;;;;;;;;;;;5.79;100.00;99768.34;5096464;28;19992;-75
2022/02/27 02:14:35;;;;;;;;;;;;;;;5.54;100.00;99754.94;5096136;28;19924;-75
2022/02/27 02:17:02;;;;;;;;;;;;;;;5.90;100.00;99761.00;5063020;28;19932;-75
2022/02/27 02:19:29;;;;;;;;;;;;;;;5.50;100.00;99745.78;5079424;28;19924;-75
2022/02/27 02:22:17;;;;;;;;;;;;;;;5.93;100.00;99743.63;5114288;28;19928;-75
2022/02/27 02:24:45;;;;;;;;;;;;;;;5.82;100.00;99737.13;5096244;28;19924;-75
2022/02/27 02:27:12;;;;;;;;;;;;;;;5.86;100.00;99743.53;5063203;28;19947;-75
2022/02/27 02:29:40;;;;;;;;;;;;;;;6.03;100.00;99754.06;5079150;28;20014;-75
2022/02/27 02:32:12;;;;;;;;;;;;;;;6.02;100.00;99746.91;5079450;28;20366;-75
2022/02/27 02:34:39;;;;;;;;;;;;;;;5.20;100.00;99760.72;5096163;28;20355;-75
2022/02/27 02:37:09;;;;;;;;;;;;;;;5.34;100.00;99755.41;5062705;28;19930;-75
2022/02/27 02:39:37;;;;;;;;;;;;;;;5.42;100.00;99757.13;5079209;28;19924;-75
2022/02/27 02:42:07;;;;;;;;;;;;;;;5.36;100.00;99764.94;5096310;28;19924;-75
2022/02/27 02:44:39;;;;;;;;;;;;;;;5.60;100.00;99755.44;5063071;28;20356;-75
2022/02/27 02:47:06;;;;;;;;;;;;;;;5.50;100.00;99759.63;5096220;28;20011;-75
2022/02/27 02:49:33;;;;;;;;;;;;;;;5.37;100.00;99758.25;5095769;28;20354;-75
2022/02/27 02:52:01;;;;;;;;;;;;;;;5.01;100.00;99763.56;5062672;28;20425;-75
2022/02/27 02:54:28;;;;;;;;;;;;;;;4.95;100.00;99765.84;5079396;28;19923;-75
2022/02/27 02:56:57;;;;;;;;;;;;;;;5.27;100.00;99764.41;5114138;28;19924;-75
2022/02/27 02:59:24;;;;;;;;;;;;;;;4.72;100.00;99762.28;5078976;28;20008;-75
2022/02/27 03:01:52;;;;;;;;;;;;;;;4.83;100.00;99766.03;5099925;28;20294;-75
2022/02/27 03:04:19;;;;;;;;;;;;;;;4.76;100.00;99763.13;5096339;28;19924;-75
2022/02/27 03:06:46;;;;;;;;;;;;;;;5.04;100.00;99755.31;5096614;28;20374;-75
2022/02/27 03:09:13;;;;;;;;;;;;;;;5.10;100.00;99751.06;5097458;28;20375;-75
2022/02/27 03:11:40;;;;;;;;;;;;;;;4.74;100.00;99748.84;5096140;28;19924;-76
2022/02/27 03:14:08;;;;;;;;;;;;;;;4.82;100.00;99739.50;5096347;28;19930;-75
2022/02/27 03:16:35;;;;;;;;;;;;;;;4.92;100.00;99744.41;5096483;28;20275;-75
2022/02/27 03:19:04;;;;;;;;;;;;;;;5.11;100.00;99736.06;5096181;28;19924;-75
2022/02/27 03:21:31;;;;;;;;;;;;;;;4.77;100.00;99722.41;5096160;28;20006;-75
2022/02/27 03:23:58;;;;;;;;;;;;;;;4.43;100.00;99732.47;5095970;28;20023;-75
2022/02/27 03:26:25;;;;;;;;;;;;;;;4.50;100.00;99738.13;5097061;28;19924;-75
2022/02/27 03:28:53;;;;;;;;;;;;;;;4.84;100.00;99726.09;5096131;28;19970;-75
2022/02/27 03:31:20;;;;;;;;;;;;;;;4.92;100.00;99725.03;5079077;28;19924;-75
2022/02/27 03:33:48;;;;;;;;;;;;;;;4.94;100.00;99717.16;5095270;28;19970;-75
2022/02/27 03:36:15;;;;;;;;;;;;;;;4.42;100.00;99710.69;5095300;28;19931;-75
2022/02/27 03:38:43;;;;;;;;;;;;;;;4.50;100.00;99718.75;5096721;28;20021;-75
2022/02/27 03:41:11;;;;;;;;;;;;;;;4.63;100.00;99698.06;5095024;28;19924;-75
2022/02/27 03:43:38;;;;;;;;;;;;;;;4.69;100.00;99699.34;5095381;28;19966;-75
2022/02/27 03:46:06;;;;;;;;;;;;;;;4.41;100.00;99696.06;5095469;28;19924;-75
2022/02/27 03:48:35;;;;;;;;;;;;;;;4.49;100.00;99703.34;5095541;28;19924;-75
2022/02/27 03:51:02;;;;;;;;;;;;;;;4.46;100.00;99704.06;5096747;28;19930;-75
2022/02/27 03:53:29;;;;;;;;;;;;;;;4.55;100.00;99706.59;5096781;28;20019;-75
2022/02/27 03:55:56;;;;;;;;;;;;;;;4.72;100.00;99704.16;5096455;28;19924;-75
2022/02/27 03:58:24;;;;;;;;;;;;;;;5.03;100.00;99700.28;5095612;28;19931;-75
2022/02/27 04:00:51;;;;;;;;;;;;;;;4.77;100.00;99703.03;5095519;28;19978;-75
2022/02/27 04:03:19;;;;;;;;;;;;;;;4.61;100.00;99699.56;5098674;28;19930;-75
2022/02/27 04:05:47;;;;;;;;;;;;;;;4.66;100.00;99700.09;5098676;28;19923;-75
2022/02/27 04:08:14;;;;;;;;;;;;;;;4.72;100.00;99698.59;5098424;28;19938;-75
2022/02/27 04:10:41;;;;;;;;;;;;;;;4.92;100.00;99691.81;5081727;28;19946;-75
2022/02/27 04:13:08;;;;;;;;;;;;;;;4.51;100.00;99694.66;5081244;28;19959;-75
2022/02/27 04:15:38;;;;;;;;;;;;;;;5.04;100.00;99686.06;5082384;28;20010;-75
2022/02/27 04:18:05;;;;;;;;;;;;;;;5.17;100.00;99693.00;5098349;28;20313;-75
2022/02/27 04:20:32;;;;;;;;;;;;;;;5.06;100.00;99678.19;5098210;28;19928;-75
2022/02/27 04:22:59;;;;;;;;;;;;;;;5.01;100.00;99680.50;5098426;28;20011;-75
2022/02/27 04:25:26;;;;;;;;;;;;;;;5.07;100.00;99684.53;5098172;28;20392;-75
2022/02/27 04:27:53;;;;;;;;;;;;;;;5.16;100.00;99679.53;5098079;28;20331;-75
2022/02/27 04:30:20;;;;;;;;;;;;;;;5.01;100.00;99680.50;5116175;28;19963;-75
2022/02/27 04:32:47;;;;;;;;;;;;;;;4.79;100.00;99673.81;5116409;28;19923;-75
2022/02/27 04:35:14;;;;;;;;;;;;;;;4.98;100.00;99673.69;5098401;28;19930;-75
2022/02/27 04:37:41;;;;;;;;;;;;;;;5.46;100.00;99675.63;5081413;28;19928;-75
2022/02/27 04:40:09;;;;;;;;;;;;;;;5.26;100.00;99670.56;5115994;28;20012;-75
2022/02/27 04:42:36;;;;;;;;;;;;;;;4.65;100.00;99670.00;5116192;28;19924;-75
2022/02/27 04:45:03;;;;;;;;;;;;;;;5.04;100.00;99657.59;5097903;28;19934;-75
2022/02/27 04:47:30;;;;;;;;;;;;;;;4.54;100.00;99661.53;5116007;28;19923;-75
2022/02/27 04:49:57;;;;;;;;;;;;;;;4.96;100.00;99666.94;5115930;28;19927;-75
2022/02/27 04:52:24;;;;;;;;;;;;;;;5.08;100.00;99667.53;5081267;28;19967;-75
2022/02/27 04:54:51;;;;;;;;;;;;;;;4.99;100.00;99667.00;5097734;28;19927;-75
2022/02/27 04:57:18;;;;;;;;;;;;;;;4.83;100.00;99663.56;5097641;28;20015;-75
2022/02/27 04:59:45;;;;;;;;;;;;;;;5.05;100.00;99662.75;5097566;28;19931;-75
2022/02/27 05:02:13;;;;;;;;;;;;;;;4.98;100.00;99661.84;5116001;28;19954;-74
2022/02/27 05:04:40;;;;;;;;;;;;;;;4.75;100.00;99678.50;5094286;28;20002;-75
2022/02/27 05:07:06;;;;;;;;;;;;;;;4.90;100.00;99674.78;5095322;28;19931;-75
2022/02/27 05:09:34;;;;;;;;;;;;;;;5.28;100.00;99680.13;5076495;28;19930;-75
2022/02/27 05:12:01;;;;;;;;;;;;;;;4.75;100.00;99681.25;5060479;28;19951;-75
2022/02/27 05:14:28;;;;;;;;;;;;;;;4.70;100.00;99691.81;5093902;28;20009;-75
2022/02/27 05:16:58;;;;;;;;;;;;;;;4.70;100.00;99686.28;5093870;28;19931;-75
2022/02/27 05:19:25;;;;;;;;;;;;;;;4.75;100.00;99688.75;5093718;28;19924;-75
2022/02/27 05:21:52;;;;;;;;;;;;;;;4.85;100.00;99691.69;5093433;28;19931;-75
2022/02/27 05:24:19;;;;;;;;;;;;;;;4.97;100.00;99697.03;5075796;28;20011;-75
2022/02/27 05:26:46;;;;;;;;;;;;;;;5.16;100.00;99687.84;5093695;28;20027;-75
2022/02/27 05:29:13;;;;;;;;;;;;;;;4.98;100.00;99678.47;5093239;28;19970;-75
2022/02/27 05:31:40;;;;;;;;;;;;;;;5.12;100.00;99671.16;5094927;28;19924;-75
2022/02/27 05:34:08;;;;;;;;;;;;;;;4.85;100.00;99666.78;5093575;28;20030;-75
2022/02/27 05:36:35;;;;;;;;;;;;;;;4.99;100.00;99668.97;5076480;28;19931;-75
2022/02/27 05:39:03;;;;;;;;;;;;;;;4.39;100.00;99667.16;5093257;28;20018;-75
2022/02/27 05:41:30;;;;;;;;;;;;;;;3.95;100.00;99669.50;5093512;28;20016;-75
2022/02/27 05:43:58;;;;;;;;;;;;;;;4.47;100.00;99677.97;5097283;28;19928;-75
2022/02/27 05:46:24;;;;;;;;;;;;;;;4.45;100.00;99669.28;5077772;28;19944;-75
2022/02/27 05:48:52;;;;;;;;;;;;;;;4.31;100.00;99668.19;5114803;28;19932;-75
2022/02/27 05:51:19;;;;;;;;;;;;;;;4.51;100.00;99669.75;5096634;28;19928;-74
2022/02/27 05:53:45;;;;;;;;;;;;;;;4.68;100.00;99664.50;5096534;28;19923;-75
2022/02/27 05:56:14;;;;;;;;;;;;;;;4.80;100.00;99669.06;5062949;28;19930;-75
2022/02/27 05:58:41;;;;;;;;;;;;;;;4.71;100.00;99672.06;5079593;28;19924;-75
2022/02/27 06:01:08;;;;;;;;;;;;;;;4.22;100.00;99662.09;5079838;28;19931;-75
2022/02/27 06:03:35;;;;;;;;;;;;;;;4.53;100.00;99672.97;5096398;28;19924;-75
2022/02/27 06:06:02;;;;;;;;;;;;;;;4.66;100.00;99679.91;5114033;28;19961;-75
2022/02/27 06:08:30;;;;;;;;;;;;;;;4.56;100.00;99684.06;5114200;28;19931;-75
2022/02/27 06:10:57;;;;;;;;;;;;;;;4.27;100.00;99686.72;5096627;28;19933;-75
2022/02/27 06:13:24;;;;;;;;;;;;;;;4.50;100.00;99680.00;5096656;28;19924;-75
2022/02/27 06:15:52;;;;;;;;;;;;;;;4.68;100.00;99689.41;5114497;28;20355;-75
2022/02/27 06:18:19;;;;;;;;;;;;;;;4.67;100.00;99693.38;5079296;28;20394;-75
2022/02/27 06:20:46;;;;;;;;;;;;;;;5.01;100.00;99691.56;5114200;28;19932;-75
2022/02/27 06:23:13;;;;;;;;;;;;;;;4.77;100.00;99692.75;5079539;28;19931;-75
2022/02/27 06:25:40;;;;;;;;;;;;;;;4.61;100.00;99689.31;5079657;28;19924;-75
2022/02/27 06:28:07;;;;;;;;;;;;;;;4.42;100.00;99685.81;5095089;28;19923;-75
2022/02/27 06:30:34;;;;;;;;;;;;;;;4.62;100.00;99696.44;5096266;28;19932;-75
2022/02/27 06:33:01;;;;;;;;;;;;;;;4.66;100.00;99691.78;5096142;28;19973;-75
2022/02/27 06:35:28;;;;;;;;;;;;;;;4.07;100.00;99708.06;5079316;28;20016;-75
2022/02/27 06:37:56;;;;;;;;;;;;;;;4.49;100.00;99695.03;5096480;28;19924;-75
2022/02/27 06:40:23;;;;;;;;;;;;;;;4.21;100.00;99707.53;5096156;28;19927;-75
2022/02/27 06:42:50;;;;;;;;;;;;;;;4.30;100.00;99706.13;5095906;28;19931;-75
2022/02/27 06:45:18;;;;;;;;;;;;;;;4.69;100.00;99699.34;5096424;28;19931;-74
2022/02/27 06:47:45;;;;;;;;;;;;;;;4.51;100.00;99698.25;5113965;28;19927;-75
2022/02/27 06:50:14;;;;;;;;;;;;;;;4.40;100.00;99688.94;5095945;28;19958;-75
2022/02/27 06:52:41;;;;;;;;;;;;;;;4.87;100.00;99697.69;5095964;28;19931;-75
2022/02/27 06:55:09;;;;;;;;;;;;;;;4.40;100.00;99690.91;5114404;28;19924;-75
2022/02/27 06:57:36;;;;;;;;;;;;;;;4.20;100.00;99701.19;5079369;28;19931;-75
2022/02/27 07:00:04;;;;;;;;;;;;;;;4.68;100.00;99689.41;5113883;28;19930;-75
2022/02/27 07:02:31;;;;;;;;;;;;;;;4.86;100.00;99696.06;5096036;28;20336;-75
2022/02/27 07:04:58;;;;;;;;;;;;;;;4.56;100.00;99697.13;5062231;28;19924;-75
2022/02/27 07:07:31;;;;;;;;;;;;;;;4.80;100.00;99696.75;5113872;28;20340;-74
2022/02/27 07:10:00;;;;;;;;;;;;;;;4.26;100.00;99705.25;5113431;28;19923;-74
2022/02/27 07:12:28;;;;;;;;;;;;;;;4.51;100.00;99706.53;5095544;28;20333;-74
2022/02/27 07:14:55;;;;;;;;;;;;;;;4.83;100.00;99718.16;5113628;28;20014;-74
2022/02/27 07:17:23;;;;;;;;;;;;;;;4.65;100.00;99706.00;5095383;28;19935;-74
2022/02/27 07:19:50;;;;;;;;;;;;;;;4.75;100.00;99700.63;5113785;28;19923;-75
2022/02/27 07:22:18;;;;;;;;;;;;;;;4.86;100.00;99703.59;5095502;28;20383;-75
2022/02/27 07:24:46;;;;;;;;;;;;;;;4.57;100.00;99694.00;5113781;28;19924;-74
2022/02/27 07:27:14;;;;;;;;;;;;;;;4.41;100.00;99696.06;5095488;28;20367;-74
2022/02/27 07:29:42;;;;;;;;;;;;;;;4.14;100.00;99690.78;5113434;28;20355;-75
2022/02/27 07:32:11;;;;;;;;;;;;;;;3.84;100.00;99692.56;5113165;28;20353;-74
2022/02/27 07:34:38;;;;;;;;;;;;;;;4.06;100.00;99692.59;5091743;28;19931;-74
2022/02/27 07:37:06;;;;;;;;;;;;;;;4.09;100.00;99694.66;5095818;28;20359;-74
2022/02/27 07:39:33;;;;;;;;;;;;;;;4.56;100.00;99695.16;5095630;28;19935;-74
2022/02/27 07:42:00;;;;;;;;;;;;;;;4.66;100.00;99697.31;5095520;28;19997;-74
2022/02/27 07:44:28;;;;;;;;;;;;;;;5.03;100.00;99689.19;5095527;28;19923;-74
2022/02/27 07:46:55;;;;;;;;;;;;;;;4.70;100.00;99691.81;5114207;28;19924;-74
2022/02/27 07:49:24;;;;;;;;;;;;;;;4.30;100.00;99695.06;5117317;28;19932;-73
2022/02/27 07:51:52;;;;;;;;;;;;;;;4.69;100.00;99701.31;5117210;28;20022;-73
2022/02/27 07:54:19;;;;;;;;;;;;;;;4.90;100.00;99696.94;5098708;28;19924;-74
2022/02/27 07:56:46;;;;;;;;;;;;;;;4.64;100.00;99691.34;5099080;28;19924;-74
2022/02/27 07:59:13;;;;;;;;;;;;;;;5.11;100.00;99702.81;5116921;28;19927;-74
2022/02/27 08:01:42;;;;;;;;;;;;;;;5.14;100.00;99693.75;5116684;28;19947;-74
2022/02/27 08:04:09;;;;;;;;;;;;;;;4.28;100.00;99700.19;5116916;28;19923;-74
2022/02/27 08:06:36;;;;;;;;;;;;;;;3.91;100.00;99687.97;5097372;28;19931;-73
2022/02/27 08:09:04;;;;;;;;;;;;;;;4.15;100.00;99690.41;5081222;28;19928;-73
2022/02/27 08:11:31;;;;;;;;;;;;;;;4.67;100.00;99685.06;5098739;28;19924;-73
2022/02/27 08:13:59;;;;;;;;;;;;;;;4.97;100.00;99697.03;5116527;28;19934;-75
2022/02/27 08:16:26;;;;;;;;;;;;;;;5.26;100.00;99699.09;5116154;28;20248;-74
2022/02/27 08:18:53;;;;;;;;;;;;;;;4.87;100.00;99705.16;5081004;28;19930;-74
2022/02/27 08:21:20;;;;;;;;;;;;;;;5.31;100.00;99698.78;5098205;28;19924;-74
2022/02/27 08:23:47;;;;;;;;;;;;;;;5.53;100.00;99699.84;5115930;28;19924;-75
2022/02/27 08:26:14;;;;;;;;;;;;;;;5.63;100.00;99702.78;5115530;28;19950;-74
2022/02/27 08:28:42;;;;;;;;;;;;;;;5.79;100.00;99710.09;5115808;28;19930;-75
2022/02/27 08:31:09;;;;;;;;;;;;;;;5.59;100.00;99703.91;5097643;28;19923;-75
2022/02/27 08:33:36;;;;;;;;;;;;;;;5.45;100.00;99701.72;5097479;28;19924;-74
2022/02/27 08:36:04;;;;;;;;;;;;;;;5.89;100.00;99701.19;5115498;28;19928;-75
2022/02/27 08:38:31;;;;;;;;;;;;;;;6.00;100.00;99704.88;5115747;28;19930;-74
2022/02/27 08:40:58;;;;;;;;;;;;;;;6.20;100.00;99701.56;5115958;28;19924;-74
2022/02/27 08:43:25;;;;;;;;;;;;;;;6.06;100.00;99697.84;5097914;28;19923;-74
2022/02/27 08:45:53;;;;;;;;;;;;;;;5.86;100.00;99688.06;5115868;28;20302;-74
2022/02/27 08:48:22;;;;;;;;;;;;;;;5.72;100.00;99688.66;5096394;28;20379;-74
2022/02/27 08:50:50;;;;;;;;;;;;;;;6.64;100.00;99691.31;5064249;28;20579;-74
2022/02/27 08:53:17;;;;;;;;;;;;;;;7.09;100.00;99690.91;5097704;28;20294;-75
2022/02/27 08:55:45;;;;;;;;;;;;;;;7.32;100.00;99687.91;5115842;28;19931;-74
2022/02/27 08:58:12;;;;;;;;;;;;;;;7.63;100.00;99683.72;5115560;28;19946;-76
2022/02/27 09:01:38;;;;;;;;;;;;;;;8.19;100.00;99678.41;5102318;28;19924;-77
2022/02/27 09:04:11;;;;;;;;;;;;;;;7.90;100.00;99680.28;5085570;28;20409;-76
2022/02/27 09:06:39;;;;;;;;;;;;;;;8.30;100.00;99682.84;5092332;28;19923;-76
2022/02/27 09:09:36;;;;;;;;;;;;;;;8.35;100.00;99679.69;5067566;28;19946;-75
2022/02/27 09:13:17;;;;;;;;;;;;;;;8.45;100.00;99687.25;5076433;28;19977;-75
2022/02/27 09:25:38;;;;;;;;;;;;;;;7.32;100.00;99671.22;5089590;28;19926;-77
2022/02/27 09:28:30;;;;;;;;;;;;;;;8.00;100.00;99685.09;5094927;28;20301;-76
2022/02/27 09:30:57;;;;;;;;;;;;;;;7.06;100.00;99674.19;5076499;28;19928;-76
2022/02/27 09:33:25;;;;;;;;;;;;;;;7.63;100.00;99680.94;5076613;28;19924;-75
2022/02/27 09:35:55;;;;;;;;;;;;;;;7.19;100.00;99676.28;5076263;28;20334;-76
2022/02/27 09:38:22;;;;;;;;;;;;;;;6.79;100.00;99675.56;5043000;28;19931;-75
2022/02/27 09:40:51;;;;;;;;;;;;;;;7.25;100.00;99676.75;5076336;28;20366;-78
2022/02/27 09:43:29;;;;;;;;;;;;;;;6.95;100.00;99684.47;5074094;28;19985;-77
2022/02/27 09:45:56;;;;;;;;;;;;;;;7.46;100.00;99676.88;5091092;28;19923;-77
2022/02/27 09:48:25;;;;;;;;;;;;;;;7.46;100.00;99664.94;5110327;28;19988;-77
2022/02/27 09:50:52;;;;;;;;;;;;;;;7.96;100.00;99653.69;5109754;28;20382;-77
2022/02/27 09:53:19;;;;;;;;;;;;;;;7.31;100.00;99652.94;5110598;28;19977;-77
2022/02/27 09:55:47;;;;;;;;;;;;;;;7.28;100.00;99646.16;5110472;28;20238;-77
2022/02/27 09:58:15;;;;;;;;;;;;;;;6.20;100.00;99656.34;5110181;28;19931;-76
2022/02/27 10:00:42;;;;;;;;;;;;;;;6.56;100.00;99649.97;5110610;28;19931;-76
2022/02/27 10:03:13;;;;;;;;;;;;;;;7.51;100.00;99650.69;5110778;28;19924;-76
2022/02/27 10:05:41;;;;;;;;;;;;;;;6.89;100.00;99652.66;5110264;28;19924;-77
2022/02/27 10:08:09;;;;;;;;;;;;;;;6.65;100.00;99656.03;5075612;28;19941;-78
2022/02/27 10:10:37;;;;;;;;;;;;;;;7.33;100.00;99647.78;5089669;28;19924;-77
2022/02/27 10:13:06;;;;;;;;;;;;;;;7.41;100.00;99631.97;5109963;28;19938;-79
2022/02/27 10:15:34;;;;;;;;;;;;;;;7.06;100.00;99646.41;5110581;28;19928;-77
2022/02/27 10:18:17;;;;;;;;;;;;;;;7.79;100.00;99646.06;5109507;28;19924;-78
2022/02/27 10:20:44;;;;;;;;;;;;;;;7.01;100.00;99646.78;5097049;28;20321;-77
2022/02/27 10:23:13;;;;;;;;;;;;;;;7.12;100.00;99633.75;5110075;28;20006;-78
2022/02/27 10:25:40;;;;;;;;;;;;;;;7.02;100.00;99640.03;5110034;28;19973;-78
2022/02/27 10:28:07;;;;;;;;;;;;;;;7.38;100.00;99637.13;5110836;28;20426;-77
2022/02/27 10:30:36;;;;;;;;;;;;;;;7.09;100.00;99635.34;5092168;28;20322;-77
2022/02/27 10:33:04;;;;;;;;;;;;;;;6.85;100.00;99638.72;5058821;28;20342;-76
2022/02/27 10:35:48;;;;;;;;;;;;;;;7.11;100.00;99627.41;5092769;28;19928;-80
2022/02/27 10:41:10;;;;;;;;;;;;;;;6.47;100.00;99630.06;5097415;28;20337;-82
2022/02/27 10:43:45;;;;;;;;;;;;;;;7.20;100.00;99613.97;5092866;28;19946;-79
2022/02/27 10:46:13;;;;;;;;;;;;;;;7.29;100.00;99627.50;5095353;28;19931;-80
2022/02/27 10:48:41;;;;;;;;;;;;;;;6.88;100.00;99623.25;5102167;28;20394;-79
2022/02/27 10:51:10;;;;;;;;;;;;;;;6.52;100.00;99615.81;5110185;28;20287;-79
2022/02/27 10:53:40;;;;;;;;;;;;;;;7.10;100.00;99630.59;5110833;28;20282;-75
2022/02/27 10:56:12;;;;;;;;;;;;;;;6.72;100.00;99636.63;5070264;28;20570;-75
2022/02/27 10:58:47;;;;;;;;;;;;;;;6.85;100.00;99630.41;5075352;28;20010;-75
2022/02/27 11:01:19;;;;;;;;;;;;;;;6.98;100.00;99630.91;5074063;28;19951;-75
2022/02/27 11:03:47;;;;;;;;;;;;;;;7.34;100.00;99627.16;5058782;28;19931;-75
2022/02/27 11:06:14;;;;;;;;;;;;;;;7.52;100.00;99619.72;5075592;28;20272;-75
2022/02/27 11:08:41;;;;;;;;;;;;;;;7.21;100.00;99628.66;5075318;28;20333;-75
2022/02/27 11:11:12;;;;;;;;;;;;;;;6.78;100.00;99616.47;5098698;28;20290;-75
2022/02/27 11:13:39;;;;;;;;;;;;;;;7.81;100.00;99598.38;5113754;28;19924;-75
2022/02/27 11:16:07;;;;;;;;;;;;;;;8.17;100.00;99600.06;5078952;28;19946;-75
2022/02/27 11:18:34;;;;;;;;;;;;;;;7.97;100.00;99602.38;5078524;28;19924;-75
2022/02/27 11:21:01;;;;;;;;;;;;;;;8.21;100.00;99584.94;5113389;28;19923;-75
2022/02/27 11:23:28;;;;;;;;;;;;;;;7.75;100.00;99611.88;5116665;28;19931;-75
2022/02/27 11:25:59;;;;;;;;;;;;;;;8.18;100.00;99608.00;5098798;28;20240;-75
2022/02/27 11:28:27;;;;;;;;;;;;;;;7.95;100.00;99610.31;5117179;28;20459;-75
2022/02/27 11:31:00;;;;;;;;;;;;;;;8.16;100.00;99609.59;5098141;28;19928;-76
2022/02/27 11:33:27;;;;;;;;;;;;;;;8.21;100.00;99615.56;5087024;28;20302;-77
2022/02/27 11:35:56;;;;;;;;;;;;;;;8.38;100.00;99609.28;5098939;28;20532;-76
2022/02/27 11:38:29;;;;;;;;;;;;;;;8.44;100.00;99604.91;5117393;28;20275;-75
2022/02/27 11:41:00;;;;;;;;;;;;;;;8.05;100.00;99617.94;5099082;28;19974;-76
2022/02/27 11:43:39;;;;;;;;;;;;;;;8.44;100.00;99606.88;5117047;28;20405;-74
2022/02/27 11:46:08;;;;;;;;;;;;;;;8.68;100.00;99611.66;5099177;28;19923;-75
2022/02/27 11:48:54;;;;;;;;;;;;;;;8.29;100.00;99608.88;5099083;28;20534;-75
2022/02/27 11:51:41;;;;;;;;;;;;;;;7.89;100.00;99611.91;5097139;28;19924;-75
2022/02/27 11:54:24;;;;;;;;;;;;;;;8.43;100.00;99602.50;5092075;28;19924;-75
2022/02/27 11:56:57;;;;;;;;;;;;;;;7.89;100.00;99600.78;5095559;28;19960;-75
2022/02/27 11:59:47;;;;;;;;;;;;;;;8.07;100.00;99596.06;5078573;28;19981;-75
2022/02/27 12:02:20;;;;;;;;;;;;;;;7.98;100.00;99595.63;5085732;28;19996;-74
2022/02/27 12:04:49;;;;;;;;;;;;;;;9.08;100.00;99592.56;5061842;28;20026;-75
2022/02/27 12:07:16;;;;;;;;;;;;;;;8.55;100.00;99594.56;5090051;28;19923;-75
2022/02/27 12:09:51;;;;;;;;;;;;;;;8.18;100.00;99585.75;5098289;28;19924;-75
2022/02/27 12:12:30;;;;;;;;;;;;;;;8.45;100.00;99570.28;5082025;28;19924;-75
2022/02/27 12:15:15;;;;;;;;;;;;;;;8.71;100.00;99567.09;5098309;28;20003;-75
2022/02/27 12:17:53;;;;;;;;;;;;;;;8.73;100.00;99561.94;5098529;28;19930;-75
2022/02/27 12:20:41;;;;;;;;;;;;;;;8.77;100.00;99551.56;5116678;28;19924;-74
2022/02/27 12:23:12;;;;;;;;;;;;;;;8.30;100.00;99546.41;5081120;28;20336;-75
2022/02/27 12:25:43;;;;;;;;;;;;;;;8.20;100.00;99538.81;5098278;28;20016;-75
2022/02/27 12:28:11;;;;;;;;;;;;;;;8.21;100.00;99534.84;5064898;28;19973;-74
2022/02/27 12:30:51;;;;;;;;;;;;;;;8.23;100.00;99543.63;5116297;28;19928;-75
2022/02/27 12:33:26;;;;;;;;;;;;;;;8.61;100.00;99531.69;5077819;28;19931;-75
2022/02/27 12:35:54;;;;;;;;;;;;;;;8.65;100.00;99545.59;5061413;28;19924;-75
2022/02/27 12:38:24;;;;;;;;;;;;;;;8.52;100.00;99530.50;5061352;28;19924;-75
2022/02/27 12:40:57;;;;;;;;;;;;;;;8.26;100.00;99537.28;5077981;28;19924;-75
2022/02/27 12:43:28;;;;;;;;;;;;;;;8.96;100.00;99537.22;5094777;28;19931;-75
2022/02/27 12:45:55;;;;;;;;;;;;;;;8.43;100.00;99546.81;5095712;28;20016;-75
2022/02/27 12:50:16;;;;;;;;;;;;;;;8.98;100.00;99523.66;5077542;28;19981;-75
2022/02/27 12:51:11;;;;;;;;;;;;;;;9.39;100.00;99531.53;5095890;28;20509;-75
2022/02/27 12:53:39;;;;;;;;;;;;;;;9.61;100.00;99524.63;5060765;28;20042;-75
2022/02/27 12:56:07;;;;;;;;;;;;;;;9.04;100.00;99508.13;5060713;28;19928;-75
2022/02/27 12:58:41;;;;;;;;;;;;;;;8.77;100.00;99520.94;5077280;28;19973;-74
2022/02/27 13:01:08;;;;;;;;;;;;;;;9.24;100.00;99513.25;5060860;28;19924;-76
2022/02/27 13:03:36;;;;;;;;;;;;;;;9.49;100.00;99519.50;5095015;28;20279;-75
2022/02/27 13:06:03;;;;;;;;;;;;;;;8.44;100.00;99523.34;5094003;28;19924;-75
2022/02/27 13:08:31;;;;;;;;;;;;;;;8.76;100.00;99519.34;5074319;28;19931;-75
2022/02/27 13:10:58;;;;;;;;;;;;;;;9.39;100.00;99512.00;5077084;28;20379;-74